sensor_id;sensor_type;location;lat;lon;timestamp;P1;durP1;ratioP1;P2;durP2;ratioP2
84396;SDS011;74595;48.846;2.358;2024-03-23T00:54:31;38.13;;;20.65;;
84396;SDS011;74595;48.846;2.358;2024-03-23T00:56:57;39.20;;;20.90;;
84396;SDS011;74595;48.846;2.358;2024-03-23T00:59:22;38.97;;;22.57;;
84396;SDS011;74595;48.846;2.358;2024-03-23T01:01:52;36.58;;;21.83;;
84396;SDS011;74595;48.846;2.358;2024-03-23T01:04:18;43.72;;;22.77;;
84396;SDS011;74595;48.846;2.358;2024-03-23T01:06:43;35.93;;;20.20;;
84396;SDS011;74595;48.846;2.358;2024-03-23T01:09:09;41.10;;;22.67;;
84396;SDS011;74595;48.846;2.358;2024-03-23T01:11:36;34.53;;;20.10;;
84396;SDS011;74595;48.846;2.358;2024-03-23T01:14:02;34.50;;;20.25;;
84396;SDS011;74595;48.846;2.358;2024-03-23T01:16:28;39.08;;;21.35;;
84396;SDS011;74595;48.846;2.358;2024-03-23T01:18:54;39.00;;;21.75;;
84396;SDS011;74595;48.846;2.358;2024-03-23T01:21:19;34.50;;;19.90;;
84396;SDS011;74595;48.846;2.358;2024-03-23T01:23:45;35.30;;;20.40;;
84396;SDS011;74595;48.846;2.358;2024-03-23T01:26:11;35.92;;;20.50;;
84396;SDS011;74595;48.846;2.358;2024-03-23T01:28:36;34.97;;;20.80;;
84396;SDS011;74595;48.846;2.358;2024-03-23T01:31:02;38.93;;;22.87;;
84396;SDS011;74595;48.846;2.358;2024-03-23T01:33:28;40.50;;;21.17;;
84396;SDS011;74595;48.846;2.358;2024-03-23T01:35:53;38.67;;;19.60;;
84396;SDS011;74595;48.846;2.358;2024-03-23T01:38:19;38.27;;;20.27;;
84396;SDS011;74595;48.846;2.358;2024-03-23T01:40:44;36.17;;;19.27;;
84396;SDS011;74595;48.846;2.358;2024-03-23T01:43:11;36.72;;;18.77;;
84396;SDS011;74595;48.846;2.358;2024-03-23T01:45:37;42.07;;;20.37;;
84396;SDS011;74595;48.846;2.358;2024-03-23T01:48:03;41.20;;;21.35;;
84396;SDS011;74595;48.846;2.358;2024-03-23T01:50:29;40.08;;;19.65;;
84396;SDS011;74595;48.846;2.358;2024-03-23T01:53:00;47.97;;;21.00;;
84396;SDS011;74595;48.846;2.358;2024-03-23T01:55:28;46.75;;;21.55;;
84396;SDS011;74595;48.846;2.358;2024-03-23T01:57:56;38.97;;;20.33;;
84396;SDS011;74595;48.846;2.358;2024-03-23T02:00:22;40.63;;;19.85;;
84396;SDS011;74595;48.846;2.358;2024-03-23T02:02:48;42.53;;;20.08;;
84396;SDS011;74595;48.846;2.358;2024-03-23T02:05:14;42.47;;;21.25;;
84396;SDS011;74595;48.846;2.358;2024-03-23T02:07:40;37.40;;;19.63;;
84396;SDS011;74595;48.846;2.358;2024-03-23T02:10:08;36.47;;;18.65;;
84396;SDS011;74595;48.846;2.358;2024-03-23T02:12:40;87.55;;;25.65;;
84396;SDS011;74595;48.846;2.358;2024-03-23T02:15:06;44.83;;;22.08;;
84396;SDS011;74595;48.846;2.358;2024-03-23T02:17:34;39.55;;;20.02;;
84396;SDS011;74595;48.846;2.358;2024-03-23T02:20:01;41.70;;;20.98;;
84396;SDS011;74595;48.846;2.358;2024-03-23T02:22:37;40.78;;;20.88;;
84396;SDS011;74595;48.846;2.358;2024-03-23T02:25:06;33.10;;;19.17;;
84396;SDS011;74595;48.846;2.358;2024-03-23T02:27:32;35.33;;;19.70;;
84396;SDS011;74595;48.846;2.358;2024-03-23T02:29:59;33.92;;;19.63;;
84396;SDS011;74595;48.846;2.358;2024-03-23T02:32:25;35.53;;;18.08;;
84396;SDS011;74595;48.846;2.358;2024-03-23T02:34:51;33.03;;;18.63;;
84396;SDS011;74595;48.846;2.358;2024-03-23T02:37:16;37.13;;;18.90;;
84396;SDS011;74595;48.846;2.358;2024-03-23T02:39:42;38.93;;;19.83;;
84396;SDS011;74595;48.846;2.358;2024-03-23T02:42:08;32.40;;;18.13;;
84396;SDS011;74595;48.846;2.358;2024-03-23T02:44:33;33.23;;;19.43;;
84396;SDS011;74595;48.846;2.358;2024-03-23T02:46:59;46.83;;;23.43;;
84396;SDS011;74595;48.846;2.358;2024-03-23T02:49:25;38.97;;;20.37;;
84396;SDS011;74595;48.846;2.358;2024-03-23T02:51:52;46.53;;;22.23;;
84396;SDS011;74595;48.846;2.358;2024-03-23T02:54:17;41.07;;;21.07;;
84396;SDS011;74595;48.846;2.358;2024-03-23T02:56:43;41.13;;;20.13;;
84396;SDS011;74595;48.846;2.358;2024-03-23T02:59:09;38.92;;;20.02;;
84396;SDS011;74595;48.846;2.358;2024-03-23T03:01:34;38.03;;;19.97;;
84396;SDS011;74595;48.846;2.358;2024-03-23T03:04:00;42.87;;;21.07;;
84396;SDS011;74595;48.846;2.358;2024-03-23T03:06:26;41.45;;;20.17;;
84396;SDS011;74595;48.846;2.358;2024-03-23T03:08:51;38.92;;;19.33;;
84396;SDS011;74595;48.846;2.358;2024-03-23T03:11:17;39.10;;;19.63;;
84396;SDS011;74595;48.846;2.358;2024-03-23T03:13:43;36.13;;;18.73;;
84396;SDS011;74595;48.846;2.358;2024-03-23T03:16:12;39.30;;;19.27;;
84396;SDS011;74595;48.846;2.358;2024-03-23T03:18:38;41.72;;;20.17;;
84396;SDS011;74595;48.846;2.358;2024-03-23T03:21:04;41.22;;;19.65;;
84396;SDS011;74595;48.846;2.358;2024-03-23T03:23:33;39.38;;;19.17;;
84396;SDS011;74595;48.846;2.358;2024-03-23T03:25:59;42.97;;;19.57;;
84396;SDS011;74595;48.846;2.358;2024-03-23T03:28:24;49.97;;;20.43;;
84396;SDS011;74595;48.846;2.358;2024-03-23T03:30:51;36.92;;;18.35;;
84396;SDS011;74595;48.846;2.358;2024-03-23T03:33:16;39.75;;;18.67;;
84396;SDS011;74595;48.846;2.358;2024-03-23T03:35:42;46.97;;;20.77;;
84396;SDS011;74595;48.846;2.358;2024-03-23T03:38:08;38.20;;;19.52;;
84396;SDS011;74595;48.846;2.358;2024-03-23T03:40:34;39.75;;;20.02;;
84396;SDS011;74595;48.846;2.358;2024-03-23T03:43:00;42.05;;;20.02;;
84396;SDS011;74595;48.846;2.358;2024-03-23T03:45:26;47.13;;;21.37;;
84396;SDS011;74595;48.846;2.358;2024-03-23T03:47:52;43.83;;;20.48;;
84396;SDS011;74595;48.846;2.358;2024-03-23T03:50:17;44.00;;;19.20;;
84396;SDS011;74595;48.846;2.358;2024-03-23T03:52:43;35.00;;;19.33;;
84396;SDS011;74595;48.846;2.358;2024-03-23T03:55:15;39.30;;;19.83;;
84396;SDS011;74595;48.846;2.358;2024-03-23T03:57:41;43.17;;;20.30;;
84396;SDS011;74595;48.846;2.358;2024-03-23T04:00:07;50.35;;;20.90;;
84396;SDS011;74595;48.846;2.358;2024-03-23T04:02:39;84.45;;;22.63;;
84396;SDS011;74595;48.846;2.358;2024-03-23T04:05:05;54.38;;;20.02;;
84396;SDS011;74595;48.846;2.358;2024-03-23T04:07:31;47.70;;;19.65;;
84396;SDS011;74595;48.846;2.358;2024-03-23T04:09:58;46.63;;;19.85;;
84396;SDS011;74595;48.846;2.358;2024-03-23T04:12:23;55.05;;;21.40;;
84396;SDS011;74595;48.846;2.358;2024-03-23T04:14:49;51.80;;;20.65;;
84396;SDS011;74595;48.846;2.358;2024-03-23T04:17:15;49.97;;;20.03;;
84396;SDS011;74595;48.846;2.358;2024-03-23T04:19:41;40.72;;;18.92;;
84396;SDS011;74595;48.846;2.358;2024-03-23T04:22:07;36.78;;;18.85;;
84396;SDS011;74595;48.846;2.358;2024-03-23T04:24:33;43.85;;;19.60;;
84396;SDS011;74595;48.846;2.358;2024-03-23T04:26:58;37.77;;;18.37;;
84396;SDS011;74595;48.846;2.358;2024-03-23T04:29:24;37.37;;;19.63;;
84396;SDS011;74595;48.846;2.358;2024-03-23T04:31:51;37.65;;;19.80;;
84396;SDS011;74595;48.846;2.358;2024-03-23T04:34:17;36.00;;;17.33;;
84396;SDS011;74595;48.846;2.358;2024-03-23T04:36:43;37.13;;;18.73;;
84396;SDS011;74595;48.846;2.358;2024-03-23T04:39:09;48.30;;;18.83;;
84396;SDS011;74595;48.846;2.358;2024-03-23T04:41:35;39.17;;;18.07;;
84396;SDS011;74595;48.846;2.358;2024-03-23T04:44:00;35.40;;;17.80;;
84396;SDS011;74595;48.846;2.358;2024-03-23T04:46:26;32.55;;;17.05;;
84396;SDS011;74595;48.846;2.358;2024-03-23T04:48:52;37.20;;;18.37;;
84396;SDS011;74595;48.846;2.358;2024-03-23T04:51:21;38.20;;;17.38;;
84396;SDS011;74595;48.846;2.358;2024-03-23T04:53:47;42.85;;;19.70;;
84396;SDS011;74595;48.846;2.358;2024-03-23T04:56:13;31.57;;;17.20;;
84396;SDS011;74595;48.846;2.358;2024-03-23T04:58:40;34.83;;;17.70;;
84396;SDS011;74595;48.846;2.358;2024-03-23T05:01:06;31.53;;;16.03;;
84396;SDS011;74595;48.846;2.358;2024-03-23T05:03:31;34.30;;;16.75;;
84396;SDS011;74595;48.846;2.358;2024-03-23T05:05:57;37.00;;;17.40;;
84396;SDS011;74595;48.846;2.358;2024-03-23T05:08:23;33.50;;;17.02;;
84396;SDS011;74595;48.846;2.358;2024-03-23T05:10:49;33.63;;;16.63;;
84396;SDS011;74595;48.846;2.358;2024-03-23T05:13:14;34.77;;;15.47;;
84396;SDS011;74595;48.846;2.358;2024-03-23T05:15:40;27.00;;;14.82;;
84396;SDS011;74595;48.846;2.358;2024-03-23T05:18:06;25.17;;;14.07;;
84396;SDS011;74595;48.846;2.358;2024-03-23T05:20:32;25.75;;;14.63;;
84396;SDS011;74595;48.846;2.358;2024-03-23T05:22:58;23.13;;;13.17;;
84396;SDS011;74595;48.846;2.358;2024-03-23T05:25:23;27.42;;;14.82;;
84396;SDS011;74595;48.846;2.358;2024-03-23T05:27:49;22.07;;;13.37;;
84396;SDS011;74595;48.846;2.358;2024-03-23T05:30:14;23.83;;;13.63;;
84396;SDS011;74595;48.846;2.358;2024-03-23T05:32:40;27.83;;;13.75;;
84396;SDS011;74595;48.846;2.358;2024-03-23T05:35:08;34.22;;;14.73;;
84396;SDS011;74595;48.846;2.358;2024-03-23T05:37:34;38.50;;;17.02;;
84396;SDS011;74595;48.846;2.358;2024-03-23T05:40:00;43.80;;;17.65;;
84396;SDS011;74595;48.846;2.358;2024-03-23T05:42:28;35.60;;;15.95;;
84396;SDS011;74595;48.846;2.358;2024-03-23T05:44:54;37.65;;;16.13;;
84396;SDS011;74595;48.846;2.358;2024-03-23T05:47:20;46.13;;;16.23;;
84396;SDS011;74595;48.846;2.358;2024-03-23T05:49:46;34.87;;;16.03;;
84396;SDS011;74595;48.846;2.358;2024-03-23T05:52:11;37.42;;;16.73;;
84396;SDS011;74595;48.846;2.358;2024-03-23T05:54:38;33.80;;;16.00;;
84396;SDS011;74595;48.846;2.358;2024-03-23T05:57:03;32.03;;;14.20;;
84396;SDS011;74595;48.846;2.358;2024-03-23T05:59:29;30.95;;;15.55;;
84396;SDS011;74595;48.846;2.358;2024-03-23T06:01:56;43.53;;;15.88;;
84396;SDS011;74595;48.846;2.358;2024-03-23T06:04:22;30.25;;;14.50;;
84396;SDS011;74595;48.846;2.358;2024-03-23T06:06:47;43.67;;;16.55;;
84396;SDS011;74595;48.846;2.358;2024-03-23T06:09:13;29.40;;;13.63;;
84396;SDS011;74595;48.846;2.358;2024-03-23T06:11:39;27.23;;;14.23;;
84396;SDS011;74595;48.846;2.358;2024-03-23T06:14:04;21.87;;;12.60;;
84396;SDS011;74595;48.846;2.358;2024-03-23T06:16:31;27.23;;;13.02;;
84396;SDS011;74595;48.846;2.358;2024-03-23T06:18:56;29.33;;;13.15;;
84396;SDS011;74595;48.846;2.358;2024-03-23T06:21:23;32.80;;;12.82;;
84396;SDS011;74595;48.846;2.358;2024-03-23T06:23:51;18.83;;;10.57;;
84396;SDS011;74595;48.846;2.358;2024-03-23T06:26:17;25.15;;;12.55;;
84396;SDS011;74595;48.846;2.358;2024-03-23T06:31:09;16.63;;;9.88;;
84396;SDS011;74595;48.846;2.358;2024-03-23T06:33:35;19.08;;;10.85;;
84396;SDS011;74595;48.846;2.358;2024-03-23T06:36:01;25.77;;;14.77;;
84396;SDS011;74595;48.846;2.358;2024-03-23T06:38:28;30.13;;;13.75;;
84396;SDS011;74595;48.846;2.358;2024-03-23T06:40:53;35.00;;;17.08;;
84396;SDS011;74595;48.846;2.358;2024-03-23T06:43:19;26.17;;;13.10;;
84396;SDS011;74595;48.846;2.358;2024-03-23T06:45:45;21.53;;;11.77;;
84396;SDS011;74595;48.846;2.358;2024-03-23T06:48:20;32.92;;;13.52;;
84396;SDS011;74595;48.846;2.358;2024-03-23T06:50:46;24.30;;;12.10;;
84396;SDS011;74595;48.846;2.358;2024-03-23T06:53:12;18.80;;;11.27;;
84396;SDS011;74595;48.846;2.358;2024-03-23T06:55:39;21.13;;;10.43;;
84396;SDS011;74595;48.846;2.358;2024-03-23T06:58:04;23.92;;;10.40;;
84396;SDS011;74595;48.846;2.358;2024-03-23T07:00:30;14.93;;;9.40;;
84396;SDS011;74595;48.846;2.358;2024-03-23T07:02:57;14.00;;;7.65;;
84396;SDS011;74595;48.846;2.358;2024-03-23T07:05:23;13.65;;;8.15;;
84396;SDS011;74595;48.846;2.358;2024-03-23T07:07:48;10.88;;;5.55;;
84396;SDS011;74595;48.846;2.358;2024-03-23T07:10:14;12.35;;;5.35;;
84396;SDS011;74595;48.846;2.358;2024-03-23T07:12:40;11.77;;;5.50;;
84396;SDS011;74595;48.846;2.358;2024-03-23T07:15:06;10.30;;;4.03;;
84396;SDS011;74595;48.846;2.358;2024-03-23T07:17:33;7.45;;;3.08;;
84396;SDS011;74595;48.846;2.358;2024-03-23T07:20:00;5.85;;;3.10;;
84396;SDS011;74595;48.846;2.358;2024-03-23T07:22:29;7.10;;;3.28;;
84396;SDS011;74595;48.846;2.358;2024-03-23T07:25:01;6.93;;;3.50;;
84396;SDS011;74595;48.846;2.358;2024-03-23T07:27:27;5.53;;;3.80;;
84396;SDS011;74595;48.846;2.358;2024-03-23T07:29:52;5.20;;;3.17;;
84396;SDS011;74595;48.846;2.358;2024-03-23T07:32:18;6.72;;;3.70;;
84396;SDS011;74595;48.846;2.358;2024-03-23T07:34:44;9.07;;;5.78;;
84396;SDS011;74595;48.846;2.358;2024-03-23T07:37:10;10.07;;;4.40;;
84396;SDS011;74595;48.846;2.358;2024-03-23T07:39:35;7.28;;;4.63;;
84396;SDS011;74595;48.846;2.358;2024-03-23T07:42:02;6.40;;;4.20;;
84396;SDS011;74595;48.846;2.358;2024-03-23T07:44:27;10.43;;;4.57;;
84396;SDS011;74595;48.846;2.358;2024-03-23T07:46:53;7.47;;;3.40;;
84396;SDS011;74595;48.846;2.358;2024-03-23T07:49:19;6.38;;;2.72;;
84396;SDS011;74595;48.846;2.358;2024-03-23T07:51:44;2.70;;;2.00;;
84396;SDS011;74595;48.846;2.358;2024-03-23T07:54:10;4.60;;;2.07;;
84396;SDS011;74595;48.846;2.358;2024-03-23T07:56:36;2.53;;;1.70;;
84396;SDS011;74595;48.846;2.358;2024-03-23T07:59:02;2.77;;;1.93;;
84396;SDS011;74595;48.846;2.358;2024-03-23T08:01:28;4.45;;;1.90;;
84396;SDS011;74595;48.846;2.358;2024-03-23T08:03:54;3.33;;;1.80;;
84396;SDS011;74595;48.846;2.358;2024-03-23T08:06:20;8.68;;;5.18;;
84396;SDS011;74595;48.846;2.358;2024-03-23T08:08:48;4.38;;;2.92;;
84396;SDS011;74595;48.846;2.358;2024-03-23T08:11:16;8.57;;;4.70;;
84396;SDS011;74595;48.846;2.358;2024-03-23T08:13:42;10.57;;;5.88;;
84396;SDS011;74595;48.846;2.358;2024-03-23T08:16:10;9.65;;;4.90;;
84396;SDS011;74595;48.846;2.358;2024-03-23T08:18:36;7.07;;;4.47;;
84396;SDS011;74595;48.846;2.358;2024-03-23T08:21:02;10.82;;;5.38;;
84396;SDS011;74595;48.846;2.358;2024-03-23T08:23:30;6.75;;;3.65;;
84396;SDS011;74595;48.846;2.358;2024-03-23T08:26:01;8.80;;;3.90;;
84396;SDS011;74595;48.846;2.358;2024-03-23T08:28:28;12.48;;;6.35;;
84396;SDS011;74595;48.846;2.358;2024-03-23T08:30:54;11.63;;;5.95;;
84396;SDS011;74595;48.846;2.358;2024-03-23T08:35:57;9.57;;;5.20;;
84396;SDS011;74595;48.846;2.358;2024-03-23T08:38:27;13.77;;;6.90;;
84396;SDS011;74595;48.846;2.358;2024-03-23T08:41:00;11.60;;;6.70;;
84396;SDS011;74595;48.846;2.358;2024-03-23T08:43:26;13.20;;;8.30;;
84396;SDS011;74595;48.846;2.358;2024-03-23T08:45:52;10.10;;;6.80;;
84396;SDS011;74595;48.846;2.358;2024-03-23T08:48:21;8.63;;;5.80;;
84396;SDS011;74595;48.846;2.358;2024-03-23T08:50:47;4.18;;;3.17;;
84396;SDS011;74595;48.846;2.358;2024-03-23T08:53:22;7.13;;;3.60;;
84396;SDS011;74595;48.846;2.358;2024-03-23T08:55:54;4.47;;;2.90;;
84396;SDS011;74595;48.846;2.358;2024-03-23T08:58:22;2.85;;;2.08;;
84396;SDS011;74595;48.846;2.358;2024-03-23T09:00:49;2.65;;;1.40;;
84396;SDS011;74595;48.846;2.358;2024-03-23T09:03:18;1.85;;;1.65;;
84396;SDS011;74595;48.846;2.358;2024-03-23T09:05:44;40.03;;;24.52;;
84396;SDS011;74595;48.846;2.358;2024-03-23T09:08:09;3.80;;;1.87;;
84396;SDS011;74595;48.846;2.358;2024-03-23T09:10:41;4.78;;;1.60;;
84396;SDS011;74595;48.846;2.358;2024-03-23T09:13:07;4.97;;;1.45;;
84396;SDS011;74595;48.846;2.358;2024-03-23T09:15:34;1.90;;;1.35;;
84396;SDS011;74595;48.846;2.358;2024-03-23T09:18:00;1.92;;;1.35;;
84396;SDS011;74595;48.846;2.358;2024-03-23T09:20:26;1.63;;;1.50;;
84396;SDS011;74595;48.846;2.358;2024-03-23T09:22:52;2.28;;;1.52;;
84396;SDS011;74595;48.846;2.358;2024-03-23T09:25:17;3.17;;;1.20;;
84396;SDS011;74595;48.846;2.358;2024-03-23T09:27:45;7.47;;;1.73;;
84396;SDS011;74595;48.846;2.358;2024-03-23T09:30:11;5.13;;;1.85;;
84396;SDS011;74595;48.846;2.358;2024-03-23T09:35:04;1.67;;;1.30;;
84396;SDS011;74595;48.846;2.358;2024-03-23T09:37:29;1.58;;;1.23;;
84396;SDS011;74595;48.846;2.358;2024-03-23T09:39:55;3.90;;;1.50;;
84396;SDS011;74595;48.846;2.358;2024-03-23T09:42:20;5.47;;;1.30;;
84396;SDS011;74595;48.846;2.358;2024-03-23T09:44:46;3.90;;;1.33;;
84396;SDS011;74595;48.846;2.358;2024-03-23T09:47:15;4.35;;;1.25;;
84396;SDS011;74595;48.846;2.358;2024-03-23T09:52:07;4.93;;;1.80;;
84396;SDS011;74595;48.846;2.358;2024-03-23T09:54:33;6.93;;;1.73;;
84396;SDS011;74595;48.846;2.358;2024-03-23T09:56:58;35.45;;;22.42;;
84396;SDS011;74595;48.846;2.358;2024-03-23T09:59:24;5.18;;;1.30;;
84396;SDS011;74595;48.846;2.358;2024-03-23T10:01:51;6.07;;;2.70;;
84396;SDS011;74595;48.846;2.358;2024-03-23T10:07:12;1.65;;;1.08;;
84396;SDS011;74595;48.846;2.358;2024-03-23T10:09:39;1.23;;;1.13;;
84396;SDS011;74595;48.846;2.358;2024-03-23T10:12:12;1.85;;;1.08;;
84396;SDS011;74595;48.846;2.358;2024-03-23T10:14:40;1.40;;;0.80;;
84396;SDS011;74595;48.846;2.358;2024-03-23T10:17:16;5.68;;;1.10;;
84396;SDS011;74595;48.846;2.358;2024-03-23T10:19:49;1.58;;;1.13;;
84396;SDS011;74595;48.846;2.358;2024-03-23T10:22:21;1.52;;;1.35;;
84396;SDS011;74595;48.846;2.358;2024-03-23T10:24:48;2.20;;;1.02;;
84396;SDS011;74595;48.846;2.358;2024-03-23T10:27:23;6.45;;;1.95;;
84396;SDS011;74595;48.846;2.358;2024-03-23T10:29:49;2.22;;;1.40;;
84396;SDS011;74595;48.846;2.358;2024-03-23T10:32:15;1.23;;;1.10;;
84396;SDS011;74595;48.846;2.358;2024-03-23T10:34:42;0.90;;;0.90;;
84396;SDS011;74595;48.846;2.358;2024-03-23T10:39:35;1.00;;;0.90;;
84396;SDS011;74595;48.846;2.358;2024-03-23T10:42:02;54.03;;;34.50;;
84396;SDS011;74595;48.846;2.358;2024-03-23T10:44:29;4.63;;;1.50;;
84396;SDS011;74595;48.846;2.358;2024-03-23T10:46:56;3.28;;;1.02;;
84396;SDS011;74595;48.846;2.358;2024-03-23T10:49:29;1.73;;;1.00;;
84396;SDS011;74595;48.846;2.358;2024-03-23T10:52:02;1.90;;;1.20;;
84396;SDS011;74595;48.846;2.358;2024-03-23T10:54:32;4.70;;;3.30;;
84396;SDS011;74595;48.846;2.358;2024-03-23T10:59:33;1.88;;;1.20;;
84396;SDS011;74595;48.846;2.358;2024-03-23T11:02:01;2.67;;;1.10;;
84396;SDS011;74595;48.846;2.358;2024-03-23T11:04:35;3.03;;;1.67;;
84396;SDS011;74595;48.846;2.358;2024-03-23T11:07:03;3.97;;;1.10;;
84396;SDS011;74595;48.846;2.358;2024-03-23T11:09:49;2.50;;;1.00;;
84396;SDS011;74595;48.846;2.358;2024-03-23T11:17:25;1.38;;;1.08;;
84396;SDS011;74595;48.846;2.358;2024-03-23T11:19:58;3.67;;;1.10;;
84396;SDS011;74595;48.846;2.358;2024-03-23T11:25:17;2.17;;;1.20;;
84396;SDS011;74595;48.846;2.358;2024-03-23T11:27:44;4.13;;;1.23;;
84396;SDS011;74595;48.846;2.358;2024-03-23T11:30:14;1.02;;;0.90;;
84396;SDS011;74595;48.846;2.358;2024-03-23T11:32:47;4.05;;;1.20;;
84396;SDS011;74595;48.846;2.358;2024-03-23T11:35:48;1.88;;;0.90;;
84396;SDS011;74595;48.846;2.358;2024-03-23T11:38:07;1.20;;;0.90;;
84396;SDS011;74595;48.846;2.358;2024-03-23T11:43:17;1.57;;;1.20;;
84396;SDS011;74595;48.846;2.358;2024-03-23T11:45:47;4.75;;;1.10;;
84396;SDS011;74595;48.846;2.358;2024-03-23T11:48:18;4.00;;;0.98;;
84396;SDS011;74595;48.846;2.358;2024-03-23T11:50:46;1.83;;;1.08;;
84396;SDS011;74595;48.846;2.358;2024-03-23T11:53:20;1.83;;;0.90;;
84396;SDS011;74595;48.846;2.358;2024-03-23T11:55:49;8.07;;;5.05;;
84396;SDS011;74595;48.846;2.358;2024-03-23T11:58:16;1.83;;;1.10;;
84396;SDS011;74595;48.846;2.358;2024-03-23T12:03:22;2.13;;;1.08;;
84396;SDS011;74595;48.846;2.358;2024-03-23T12:05:51;3.67;;;1.50;;
84396;SDS011;74595;48.846;2.358;2024-03-23T12:08:24;1.52;;;1.13;;
84396;SDS011;74595;48.846;2.358;2024-03-23T12:11:10;1.83;;;0.98;;
84396;SDS011;74595;48.846;2.358;2024-03-23T12:13:38;2.63;;;1.20;;
84396;SDS011;74595;48.846;2.358;2024-03-23T12:18:43;3.67;;;1.15;;
84396;SDS011;74595;48.846;2.358;2024-03-23T12:21:12;1.58;;;0.95;;
84396;SDS011;74595;48.846;2.358;2024-03-23T12:23:41;3.05;;;0.98;;
84396;SDS011;74595;48.846;2.358;2024-03-23T12:26:07;1.45;;;0.93;;
84396;SDS011;74595;48.846;2.358;2024-03-23T12:28:33;1.45;;;1.00;;
84396;SDS011;74595;48.846;2.358;2024-03-23T12:30:59;3.40;;;1.25;;
84396;SDS011;74595;48.846;2.358;2024-03-23T12:33:25;3.10;;;1.15;;
84396;SDS011;74595;48.846;2.358;2024-03-23T12:35:50;3.75;;;1.00;;
84396;SDS011;74595;48.846;2.358;2024-03-23T12:38:17;5.72;;;1.15;;
84396;SDS011;74595;48.846;2.358;2024-03-23T12:40:46;9.80;;;6.50;;
84396;SDS011;74595;48.846;2.358;2024-03-23T12:43:15;3.92;;;1.40;;
84396;SDS011;74595;48.846;2.358;2024-03-23T12:45:48;2.83;;;1.23;;
84396;SDS011;74595;48.846;2.358;2024-03-23T12:48:14;4.72;;;1.42;;
84396;SDS011;74595;48.846;2.358;2024-03-23T12:50:40;4.18;;;1.20;;
84396;SDS011;74595;48.846;2.358;2024-03-23T12:53:05;1.48;;;1.25;;
84396;SDS011;74595;48.846;2.358;2024-03-23T12:55:31;3.08;;;1.20;;
84396;SDS011;74595;48.846;2.358;2024-03-23T12:57:57;2.53;;;1.20;;
84396;SDS011;74595;48.846;2.358;2024-03-23T13:00:22;1.70;;;1.20;;
84396;SDS011;74595;48.846;2.358;2024-03-23T13:02:48;6.28;;;1.85;;
84396;SDS011;74595;48.846;2.358;2024-03-23T13:05:14;3.15;;;1.27;;
84396;SDS011;74595;48.846;2.358;2024-03-23T13:07:39;2.47;;;1.38;;
84396;SDS011;74595;48.846;2.358;2024-03-23T13:10:05;1.80;;;1.20;;
84396;SDS011;74595;48.846;2.358;2024-03-23T13:12:32;2.92;;;1.52;;
84396;SDS011;74595;48.846;2.358;2024-03-23T13:15:00;3.63;;;1.45;;
84396;SDS011;74595;48.846;2.358;2024-03-23T13:17:26;3.95;;;1.60;;
84396;SDS011;74595;48.846;2.358;2024-03-23T13:19:55;7.10;;;1.40;;
84396;SDS011;74595;48.846;2.358;2024-03-23T13:22:21;6.55;;;1.77;;
84396;SDS011;74595;48.846;2.358;2024-03-23T13:24:47;9.65;;;2.20;;
84396;SDS011;74595;48.846;2.358;2024-03-23T13:27:12;3.88;;;1.52;;
84396;SDS011;74595;48.846;2.358;2024-03-23T13:29:38;6.93;;;2.20;;
84396;SDS011;74595;48.846;2.358;2024-03-23T13:32:04;4.88;;;2.20;;
84396;SDS011;74595;48.846;2.358;2024-03-23T13:34:30;11.15;;;2.72;;
84396;SDS011;74595;48.846;2.358;2024-03-23T13:36:56;4.10;;;1.40;;
84396;SDS011;74595;48.846;2.358;2024-03-23T13:39:23;4.82;;;1.40;;
84396;SDS011;74595;48.846;2.358;2024-03-23T13:41:49;3.35;;;1.60;;
84396;SDS011;74595;48.846;2.358;2024-03-23T13:44:14;3.38;;;1.20;;
84396;SDS011;74595;48.846;2.358;2024-03-23T13:46:41;6.25;;;3.05;;
84396;SDS011;74595;48.846;2.358;2024-03-23T13:49:18;4.70;;;2.72;;
84396;SDS011;74595;48.846;2.358;2024-03-23T13:51:51;5.68;;;1.63;;
84396;SDS011;74595;48.846;2.358;2024-03-23T13:54:18;4.97;;;1.67;;
84396;SDS011;74595;48.846;2.358;2024-03-23T13:56:43;10.35;;;3.30;;
84396;SDS011;74595;48.846;2.358;2024-03-23T13:59:09;4.70;;;1.42;;
84396;SDS011;74595;48.846;2.358;2024-03-23T14:01:35;2.17;;;1.20;;
84396;SDS011;74595;48.846;2.358;2024-03-23T14:04:01;3.08;;;1.30;;
84396;SDS011;74595;48.846;2.358;2024-03-23T14:06:26;7.20;;;1.70;;
84396;SDS011;74595;48.846;2.358;2024-03-23T14:08:52;2.85;;;1.50;;
84396;SDS011;74595;48.846;2.358;2024-03-23T14:11:18;10.15;;;8.38;;
84396;SDS011;74595;48.846;2.358;2024-03-23T14:13:44;4.07;;;2.17;;
84396;SDS011;74595;48.846;2.358;2024-03-23T14:16:09;4.22;;;1.67;;
84396;SDS011;74595;48.846;2.358;2024-03-23T14:18:35;2.70;;;1.23;;
84396;SDS011;74595;48.846;2.358;2024-03-23T14:21:01;3.88;;;1.50;;
84396;SDS011;74595;48.846;2.358;2024-03-23T14:23:28;7.55;;;1.73;;
84396;SDS011;74595;48.846;2.358;2024-03-23T14:25:54;2.83;;;1.50;;
84396;SDS011;74595;48.846;2.358;2024-03-23T14:28:21;3.42;;;1.50;;
84396;SDS011;74595;48.846;2.358;2024-03-23T14:30:48;3.63;;;1.55;;
84396;SDS011;74595;48.846;2.358;2024-03-23T14:33:15;3.85;;;1.63;;
84396;SDS011;74595;48.846;2.358;2024-03-23T14:35:41;3.65;;;1.40;;
84396;SDS011;74595;48.846;2.358;2024-03-23T14:38:07;5.40;;;1.67;;
84396;SDS011;74595;48.846;2.358;2024-03-23T14:40:32;7.40;;;1.95;;
84396;SDS011;74595;48.846;2.358;2024-03-23T14:42:58;4.28;;;1.88;;
84396;SDS011;74595;48.846;2.358;2024-03-23T14:45:24;2.85;;;1.40;;
84396;SDS011;74595;48.846;2.358;2024-03-23T14:47:50;3.55;;;1.65;;
84396;SDS011;74595;48.846;2.358;2024-03-23T14:50:17;2.38;;;1.60;;
84396;SDS011;74595;48.846;2.358;2024-03-23T14:52:46;3.50;;;1.77;;
84396;SDS011;74595;48.846;2.358;2024-03-23T14:55:12;2.95;;;1.42;;
84396;SDS011;74595;48.846;2.358;2024-03-23T14:57:38;2.97;;;1.50;;
84396;SDS011;74595;48.846;2.358;2024-03-23T15:00:06;3.42;;;1.50;;
84396;SDS011;74595;48.846;2.358;2024-03-23T15:02:38;1.95;;;1.38;;
84396;SDS011;74595;48.846;2.358;2024-03-23T15:05:05;17.23;;;10.98;;
84396;SDS011;74595;48.846;2.358;2024-03-23T15:07:34;6.30;;;1.70;;
84396;SDS011;74595;48.846;2.358;2024-03-23T15:10:03;1.85;;;1.30;;
84396;SDS011;74595;48.846;2.358;2024-03-23T15:12:30;2.10;;;1.23;;
84396;SDS011;74595;48.846;2.358;2024-03-23T15:25:14;8.10;;;3.20;;
84396;SDS011;74595;48.846;2.358;2024-03-23T15:27:40;4.15;;;1.60;;
84396;SDS011;74595;48.846;2.358;2024-03-23T15:30:06;4.78;;;1.70;;
84396;SDS011;74595;48.846;2.358;2024-03-23T15:32:32;8.10;;;2.00;;
84396;SDS011;74595;48.846;2.358;2024-03-23T15:34:58;7.00;;;2.13;;
84396;SDS011;74595;48.846;2.358;2024-03-23T15:37:23;4.82;;;1.75;;
84396;SDS011;74595;48.846;2.358;2024-03-23T15:39:49;3.72;;;1.77;;
84396;SDS011;74595;48.846;2.358;2024-03-23T15:42:14;4.93;;;1.90;;
84396;SDS011;74595;48.846;2.358;2024-03-23T15:44:40;3.05;;;1.63;;
84396;SDS011;74595;48.846;2.358;2024-03-23T15:47:06;7.78;;;1.67;;
84396;SDS011;74595;48.846;2.358;2024-03-23T15:49:31;3.53;;;1.73;;
84396;SDS011;74595;48.846;2.358;2024-03-23T15:51:57;2.95;;;1.40;;
84396;SDS011;74595;48.846;2.358;2024-03-23T15:54:24;8.57;;;2.28;;
84396;SDS011;74595;48.846;2.358;2024-03-23T15:56:50;7.40;;;2.00;;
84396;SDS011;74595;48.846;2.358;2024-03-23T15:59:15;6.93;;;2.10;;
84396;SDS011;74595;48.846;2.358;2024-03-23T16:01:41;3.85;;;1.95;;
84396;SDS011;74595;48.846;2.358;2024-03-23T16:04:08;4.05;;;1.42;;
84396;SDS011;74595;48.846;2.358;2024-03-23T16:06:34;4.85;;;1.38;;
84396;SDS011;74595;48.846;2.358;2024-03-23T16:11:25;3.40;;;1.65;;
84396;SDS011;74595;48.846;2.358;2024-03-23T16:13:51;3.53;;;1.85;;